createdAt,value
2022-07-29T00:01:45.100Z,3.57
2022-07-29T00:04:12.270Z,4.43
2022-07-29T00:06:40.281Z,4.63
2022-07-29T00:09:11.365Z,3.67
2022-07-29T00:11:38.448Z,4.35
2022-07-29T00:14:05.748Z,4.47
2022-07-29T00:16:33.095Z,4.07
2022-07-29T00:19:02.267Z,3.72
2022-07-29T00:21:29.693Z,4.15
2022-07-29T00:23:56.878Z,6.10
2022-07-29T00:26:25.547Z,4.43
2022-07-29T00:28:52.151Z,6.25
2022-07-29T00:31:19.326Z,8.30
2022-07-29T00:33:46.816Z,3.78
2022-07-29T00:36:16.875Z,2.55
2022-07-29T00:38:46.372Z,3.40
2022-07-29T00:41:13.168Z,5.40
2022-07-29T00:43:40.011Z,5.55
2022-07-29T00:46:07.376Z,4.95
2022-07-29T00:48:34.036Z,4.88
2022-07-29T00:51:02.934Z,3.43
2022-07-29T00:53:34.516Z,6.25
2022-07-29T00:56:19.557Z,5.25
2022-07-29T00:58:49.519Z,2.05
2022-07-29T01:01:16.370Z,5.90
2022-07-29T01:03:49.573Z,3.33
2022-07-29T01:06:28.134Z,4.43
2022-07-29T01:09:02.045Z,3.25
2022-07-29T01:11:31.250Z,4.53
2022-07-29T01:14:09.469Z,3.80
2022-07-29T01:17:09.900Z,5.97
2022-07-29T01:20:07.268Z,3.38
2022-07-29T01:23:09.203Z,3.88
2022-07-29T01:25:57.756Z,3.63
2022-07-29T01:28:47.648Z,3.38
2022-07-29T01:32:00.585Z,3.77
2022-07-29T01:34:59.679Z,3.63
2022-07-29T01:37:42.816Z,5.57
2022-07-29T01:40:20.982Z,3.45
2022-07-29T01:42:52.716Z,2.78
2022-07-29T01:45:27.557Z,3.40
2022-07-29T01:48:01.558Z,3.38
2022-07-29T01:50:36.854Z,4.45
2022-07-29T01:53:09.976Z,3.72
2022-07-29T01:55:49.176Z,3.85
2022-07-29T01:58:23.274Z,3.43
2022-07-29T02:00:54.824Z,2.60
2022-07-29T02:03:27.448Z,6.22
2022-07-29T02:06:06.257Z,3.92
2022-07-29T02:08:49.052Z,3.83
2022-07-29T02:11:16.907Z,3.83
2022-07-29T02:13:45.990Z,3.55
2022-07-29T02:16:13.342Z,2.75
2022-07-29T02:18:45.120Z,3.08
2022-07-29T02:21:22.530Z,4.18
2022-07-29T02:23:51.751Z,4.07
2022-07-29T02:26:22.023Z,8.60
2022-07-29T02:28:51.055Z,4.65
2022-07-29T02:31:21.806Z,4.72
2022-07-29T02:33:49.555Z,3.30
2022-07-29T02:36:17.631Z,3.30
2022-07-29T02:38:52.074Z,4.65
2022-07-29T02:41:27.344Z,3.47
2022-07-29T02:44:07.376Z,3.15
2022-07-29T02:46:37.754Z,10.70
2022-07-29T02:49:13.761Z,3.10
2022-07-29T02:51:47.891Z,3.53
2022-07-29T02:54:44.154Z,5.88
2022-07-29T02:57:21.856Z,5.13
2022-07-29T02:59:52.677Z,7.20
2022-07-29T03:02:20.505Z,5.13
2022-07-29T03:04:50.835Z,4.78
2022-07-29T03:07:19.875Z,4.00
2022-07-29T03:09:47.433Z,4.95
2022-07-29T03:12:15.306Z,3.38
2022-07-29T03:14:43.059Z,5.00
2022-07-29T03:17:10.924Z,6.65
2022-07-29T03:19:38.658Z,5.32
2022-07-29T03:22:05.767Z,3.97
2022-07-29T03:24:37.523Z,5.30
2022-07-29T03:27:06.077Z,2.70
2022-07-29T03:29:34.500Z,4.30
2022-07-29T03:32:07.256Z,4.38
2022-07-29T03:34:36.720Z,4.80
2022-07-29T03:37:03.505Z,6.53
2022-07-29T03:39:34.084Z,3.90
2022-07-29T03:42:01.967Z,4.13
2022-07-29T03:44:29.485Z,5.50
2022-07-29T03:47:00.055Z,5.25
2022-07-29T03:49:27.713Z,3.75
2022-07-29T03:51:55.159Z,4.20
2022-07-29T03:54:22.192Z,6.25
2022-07-29T03:56:51.201Z,4.43
2022-07-29T03:59:20.501Z,4.63
2022-07-29T04:01:49.489Z,4.72
2022-07-29T04:04:17.904Z,2.13
2022-07-29T04:06:48.288Z,5.88
2022-07-29T04:09:16.162Z,5.28
2022-07-29T04:12:01.773Z,4.38
2022-07-29T04:14:29.623Z,3.03
2022-07-29T04:16:56.661Z,5.20
2022-07-29T04:19:31.548Z,5.15
2022-07-29T04:21:59.685Z,5.97
2022-07-29T04:24:36.938Z,5.53
2022-07-29T04:27:04.801Z,5.78
2022-07-29T04:29:56.843Z,5.07
2022-07-29T04:32:32.318Z,3.88
2022-07-29T04:34:58.980Z,3.65
2022-07-29T04:37:26.600Z,5.25
2022-07-29T04:39:53.496Z,7.00
2022-07-29T04:42:27.749Z,4.17
2022-07-29T04:45:04.782Z,4.53
2022-07-29T04:47:40.645Z,6.70
2022-07-29T04:50:09.188Z,5.90
2022-07-29T04:52:40.644Z,4.20
2022-07-29T04:55:07.897Z,5.87
2022-07-29T04:57:35.758Z,4.25
2022-07-29T05:00:02.860Z,9.48
2022-07-29T05:02:30.749Z,5.75
2022-07-29T05:05:08.834Z,4.18
2022-07-29T05:07:38.944Z,5.17
2022-07-29T05:10:06.122Z,6.70
2022-07-29T05:12:33.315Z,5.53
2022-07-29T05:15:01.032Z,6.30
2022-07-29T05:17:27.749Z,7.03
2022-07-29T05:19:54.623Z,5.37
2022-07-29T05:22:21.869Z,3.78
2022-07-29T05:24:48.861Z,4.07
2022-07-29T05:27:15.744Z,4.10
2022-07-29T05:29:45.590Z,5.57
2022-07-29T05:32:15.779Z,4.83
2022-07-29T05:34:50.313Z,5.20
2022-07-29T05:37:21.280Z,4.32
2022-07-29T05:39:56.975Z,4.22
2022-07-29T05:42:25.850Z,3.53
2022-07-29T05:44:53.540Z,4.17
2022-07-29T05:47:20.300Z,7.10
2022-07-29T05:49:47.406Z,4.22
2022-07-29T05:52:14.582Z,5.90
2022-07-29T05:54:41.703Z,4.70
2022-07-29T05:57:22.357Z,5.40
2022-07-29T05:59:50.520Z,4.63
2022-07-29T06:02:17.424Z,4.35
2022-07-29T06:04:45.013Z,4.07
2022-07-29T06:07:12.349Z,4.65
2022-07-29T06:09:39.161Z,4.67
2022-07-29T06:12:06.261Z,5.93
2022-07-29T06:14:33.595Z,8.38
2022-07-29T06:17:00.337Z,3.45
2022-07-29T06:19:27.702Z,5.93
2022-07-29T06:21:55.190Z,4.97
2022-07-29T06:24:21.852Z,4.72
2022-07-29T06:26:50.834Z,6.13
2022-07-29T06:29:18.106Z,7.28
2022-07-29T06:31:44.891Z,5.35
2022-07-29T06:34:12.044Z,4.03
2022-07-29T06:36:41.027Z,5.55
2022-07-29T06:39:08.892Z,5.82
2022-07-29T06:41:36.647Z,5.72
2022-07-29T06:44:10.181Z,7.18
2022-07-29T06:46:43.161Z,6.80
2022-07-29T06:49:11.381Z,5.45
2022-07-29T06:51:38.290Z,4.78
2022-07-29T06:54:07.021Z,4.40
2022-07-29T06:56:39.124Z,3.67
2022-07-29T06:59:08.864Z,4.10
2022-07-29T07:01:47.143Z,5.78
2022-07-29T07:04:16.949Z,5.88
2022-07-29T07:06:45.486Z,6.00
2022-07-29T07:09:12.368Z,4.82
2022-07-29T07:11:39.657Z,3.93
2022-07-29T07:14:06.548Z,5.15
2022-07-29T07:16:33.741Z,5.63
2022-07-29T07:19:01.343Z,6.60
2022-07-29T07:21:30.648Z,5.20
2022-07-29T07:23:59.038Z,4.43
2022-07-29T07:26:37.618Z,4.82
2022-07-29T07:29:04.928Z,5.25
2022-07-29T07:31:31.866Z,4.93
2022-07-29T07:33:59.300Z,5.53
2022-07-29T07:39:13.080Z,6.97
2022-07-29T07:41:49.534Z,6.90
2022-07-29T07:44:23.647Z,6.95
2022-07-29T07:46:51.047Z,6.63
2022-07-29T07:49:17.783Z,4.40
2022-07-29T07:51:44.782Z,3.88
2022-07-29T07:54:18.299Z,7.63
2022-07-29T07:56:45.540Z,3.70
2022-07-29T07:59:12.403Z,6.47
2022-07-29T08:01:48.193Z,5.70
2022-07-29T08:04:27.357Z,6.60
2022-07-29T08:06:56.684Z,5.22
2022-07-29T08:09:30.996Z,5.18
2022-07-29T08:12:00.141Z,7.82
2022-07-29T08:14:27.454Z,4.07
2022-07-29T08:16:54.781Z,4.40
2022-07-29T08:19:22.827Z,3.72
2022-07-29T08:21:51.802Z,5.85
2022-07-29T08:24:57.882Z,6.75
2022-07-29T08:30:11.933Z,5.15
2022-07-29T08:32:55.716Z,5.95
2022-07-29T08:35:24.279Z,4.95
2022-07-29T08:37:52.354Z,5.47
2022-07-29T08:40:21.471Z,6.90
2022-07-29T08:43:00.859Z,5.68
2022-07-29T08:45:29.115Z,4.78
2022-07-29T08:47:56.587Z,5.20
2022-07-29T08:50:23.860Z,6.88
2022-07-29T08:52:53.566Z,3.53
2022-07-29T08:55:23.697Z,9.13
2022-07-29T08:57:54.150Z,7.53
2022-07-29T09:00:23.400Z,4.95
2022-07-29T09:02:57.483Z,8.05
2022-07-29T09:05:25.776Z,4.23
2022-07-29T09:07:53.033Z,5.63
2022-07-29T09:10:19.981Z,3.53
2022-07-29T09:12:47.050Z,4.38
2022-07-29T09:15:14.140Z,5.30
2022-07-29T09:17:49.424Z,6.07
2022-07-29T09:20:19.343Z,4.90
2022-07-29T09:22:50.784Z,7.40
2022-07-29T09:25:37.800Z,6.35
2022-07-29T09:28:13.411Z,6.03
2022-07-29T09:30:53.109Z,5.47
2022-07-29T09:33:20.537Z,5.95
2022-07-29T09:35:56.418Z,6.97
2022-07-29T09:38:23.960Z,5.88
2022-07-29T09:41:06.404Z,5.80
2022-07-29T09:43:34.681Z,13.43
2022-07-29T09:46:12.688Z,5.05
2022-07-29T09:48:39.603Z,4.13
2022-07-29T09:51:07.440Z,7.38
2022-07-29T09:53:36.734Z,7.38
2022-07-29T09:56:04.924Z,6.03
2022-07-29T09:58:34.578Z,4.68
2022-07-29T10:01:02.382Z,6.88
2022-07-29T10:03:29.592Z,5.32
2022-07-29T10:06:14.453Z,6.55
2022-07-29T10:08:42.916Z,5.77
2022-07-29T10:11:16.318Z,5.53
2022-07-29T10:13:47.952Z,5.90
2022-07-29T10:16:16.459Z,4.93
2022-07-29T10:18:59.984Z,7.05
2022-07-29T10:21:36.076Z,4.67
2022-07-29T10:24:03.717Z,6.93
2022-07-29T10:26:31.371Z,4.97
2022-07-29T10:29:02.474Z,7.50
2022-07-29T10:31:49.714Z,4.95
2022-07-29T10:34:54.412Z,6.93
2022-07-29T10:37:36.188Z,8.73
2022-07-29T10:40:34.807Z,5.07
2022-07-29T10:43:19.215Z,5.25
2022-07-29T10:45:50.665Z,6.25
2022-07-29T10:48:19.709Z,8.00
2022-07-29T10:51:01.535Z,7.10
2022-07-29T10:53:51.569Z,7.22
2022-07-29T10:56:30.741Z,6.32
2022-07-29T10:59:20.108Z,8.15
2022-07-29T11:01:52.470Z,9.23
2022-07-29T11:05:00.128Z,6.97
2022-07-29T11:07:27.855Z,5.35
2022-07-29T11:10:13.104Z,6.68
2022-07-29T11:12:43.902Z,6.13
2022-07-29T11:15:18.395Z,7.40
2022-07-29T11:18:01.482Z,4.05
2022-07-29T11:20:37.909Z,6.10
2022-07-29T11:23:33.717Z,11.32
2022-07-29T11:26:13.912Z,4.28
2022-07-29T11:28:54.393Z,4.50
2022-07-29T11:31:40.163Z,5.95
2022-07-29T11:34:20.775Z,7.07
2022-07-29T11:37:15.938Z,4.85
2022-07-29T11:40:01.489Z,5.63
2022-07-29T11:42:32.468Z,6.97
2022-07-29T11:45:41.622Z,6.43
2022-07-29T11:47:55.307Z,10.50
2022-07-29T11:50:34.605Z,10.25
2022-07-29T11:53:04.188Z,5.53
2022-07-29T11:55:38.777Z,7.53
2022-07-29T11:58:26.553Z,7.13
2022-07-29T12:00:55.441Z,10.05
2022-07-29T12:03:33.365Z,6.25
2022-07-29T12:06:13.289Z,5.47
2022-07-29T12:08:44.655Z,7.90
2022-07-29T12:11:22.379Z,5.63
2022-07-29T12:13:53.547Z,7.80
2022-07-29T12:16:25.485Z,6.20
2022-07-29T12:18:57.744Z,4.55
2022-07-29T12:21:25.693Z,4.40
2022-07-29T12:23:59.441Z,8.32
2022-07-29T12:26:32.413Z,8.70
2022-07-29T12:29:02.445Z,6.68
2022-07-29T12:31:42.955Z,12.00
2022-07-29T12:34:16.695Z,8.30
2022-07-29T12:36:44.147Z,6.25
2022-07-29T12:39:12.354Z,5.68
2022-07-29T12:41:40.286Z,6.20
2022-07-29T12:44:07.076Z,6.35
2022-07-29T12:46:34.286Z,5.03
2022-07-29T12:49:01.284Z,7.10
2022-07-29T12:51:35.431Z,8.65
2022-07-29T12:54:12.697Z,9.23
2022-07-29T12:56:44.318Z,5.72
2022-07-29T12:59:20.386Z,5.77
2022-07-29T13:01:52.845Z,5.53
2022-07-29T13:04:29.688Z,10.25
2022-07-29T13:07:08.355Z,5.55
2022-07-29T13:09:46.771Z,5.65
2022-07-29T13:12:14.634Z,6.00
2022-07-29T13:14:44.961Z,7.88
2022-07-29T13:17:13.383Z,8.30
2022-07-29T13:19:44.430Z,5.70
2022-07-29T13:22:16.745Z,6.80
2022-07-29T13:25:07.375Z,7.87
2022-07-29T13:27:37.591Z,7.07
2022-07-29T13:30:06.639Z,6.55
2022-07-29T13:32:35.481Z,7.38
2022-07-29T13:35:06.061Z,7.00
2022-07-29T13:37:35.795Z,8.10
2022-07-29T13:40:04.166Z,6.93
2022-07-29T13:42:31.345Z,7.50
2022-07-29T13:44:58.003Z,4.65
2022-07-29T13:47:32.759Z,7.72
2022-07-29T13:50:06.218Z,12.47
2022-07-29T13:52:34.864Z,7.50
2022-07-29T13:55:02.974Z,6.50
2022-07-29T13:57:30.313Z,9.13
2022-07-29T13:59:57.749Z,8.45
2022-07-29T14:02:25.810Z,10.33
2022-07-29T14:04:53.970Z,6.80
2022-07-29T14:07:20.815Z,8.07
2022-07-29T14:09:47.492Z,8.35
2022-07-29T14:12:14.266Z,11.63
2022-07-29T14:14:42.448Z,6.20
2022-07-29T14:17:10.099Z,8.48
2022-07-29T14:19:38.991Z,6.55
2022-07-29T14:22:07.624Z,6.20
2022-07-29T14:24:37.561Z,7.90
2022-07-29T14:27:08.462Z,7.47
2022-07-29T14:29:38.312Z,7.30
2022-07-29T14:32:11.588Z,6.82
2022-07-29T14:35:04.050Z,8.30
2022-07-29T14:37:40.095Z,8.38
2022-07-29T14:40:08.905Z,9.90
2022-07-29T14:42:38.621Z,11.85
2022-07-29T14:45:07.384Z,10.48
2022-07-29T14:47:37.591Z,8.95
2022-07-29T14:50:06.051Z,7.13
2022-07-29T14:52:32.806Z,12.27
2022-07-29T14:54:59.676Z,10.07
2022-07-29T14:57:26.595Z,7.75
2022-07-29T14:59:53.197Z,8.90
2022-07-29T15:02:20.278Z,10.55
2022-07-29T15:04:49.192Z,7.60
2022-07-29T15:07:16.615Z,9.57
2022-07-29T15:09:49.394Z,9.95
2022-07-29T15:12:17.319Z,10.45
2022-07-29T15:14:44.105Z,11.63
2022-07-29T15:17:10.963Z,13.10
2022-07-29T15:19:38.063Z,7.72
2022-07-29T15:22:06.432Z,8.20
2022-07-29T15:24:33.596Z,6.25
2022-07-29T15:27:00.685Z,8.80
2022-07-29T15:29:28.577Z,8.10
2022-07-29T15:31:55.284Z,8.60
2022-07-29T15:34:24.464Z,8.43
2022-07-29T15:36:53.326Z,6.03
2022-07-29T15:39:21.977Z,8.38
2022-07-29T15:41:48.869Z,7.10
2022-07-29T15:44:15.855Z,9.00
2022-07-29T15:47:02.198Z,8.48
2022-07-29T15:49:48.638Z,8.63
2022-07-29T15:52:25.388Z,8.68
2022-07-29T15:54:54.304Z,11.87
2022-07-29T15:57:20.908Z,8.48
2022-07-29T15:59:47.945Z,8.73
2022-07-29T16:02:17.700Z,8.65
2022-07-29T16:04:44.704Z,8.50
2022-07-29T16:07:11.878Z,11.50
2022-07-29T16:09:41.232Z,11.05
2022-07-29T16:12:15.447Z,8.02
2022-07-29T16:14:45.846Z,5.57
2022-07-29T16:17:14.769Z,9.88
2022-07-29T16:19:43.295Z,8.23
2022-07-29T16:22:10.864Z,8.75
2022-07-29T16:24:38.879Z,9.07
2022-07-29T16:27:05.789Z,6.78
2022-07-29T16:29:33.050Z,10.30
2022-07-29T16:32:00.952Z,8.03
2022-07-29T16:34:27.820Z,7.78
2022-07-29T16:36:54.675Z,9.43
2022-07-29T16:39:21.346Z,7.32
2022-07-29T16:41:48.600Z,10.40
2022-07-29T16:44:16.392Z,7.33
2022-07-29T16:46:45.427Z,9.82
2022-07-29T16:49:12.689Z,8.90
2022-07-29T16:51:47.835Z,7.50
2022-07-29T16:54:14.715Z,8.25
2022-07-29T16:56:41.386Z,7.57
2022-07-29T16:59:08.536Z,8.25
2022-07-29T17:01:35.640Z,8.43
2022-07-29T17:04:08.518Z,10.98
2022-07-29T17:06:40.667Z,8.40
2022-07-29T17:09:10.148Z,12.50
2022-07-29T17:11:51.555Z,10.95
2022-07-29T17:14:25.216Z,7.18
2022-07-29T17:17:01.347Z,6.90
2022-07-29T17:19:33.022Z,7.45
2022-07-29T17:22:10.138Z,6.33
2022-07-29T17:24:40.862Z,7.97
2022-07-29T17:27:10.394Z,20.33
2022-07-29T17:29:38.877Z,11.07
2022-07-29T17:32:07.736Z,11.65
2022-07-29T17:34:38.886Z,8.70
2022-07-29T17:37:08.313Z,8.40
2022-07-29T17:39:35.633Z,10.60
2022-07-29T17:42:04.162Z,12.23
2022-07-29T17:44:31.355Z,8.05
2022-07-29T17:47:01.956Z,8.97
2022-07-29T17:49:32.076Z,10.30
2022-07-29T17:52:01.152Z,6.60
2022-07-29T17:54:28.143Z,10.60
2022-07-29T17:56:55.017Z,9.95
2022-07-29T17:59:22.062Z,8.23
2022-07-29T18:01:48.754Z,8.68
2022-07-29T18:04:20.422Z,8.10
2022-07-29T18:06:47.307Z,12.85
2022-07-29T18:09:14.520Z,9.50
2022-07-29T18:11:44.404Z,5.80
2022-07-29T18:14:13.585Z,5.28
2022-07-29T18:16:40.712Z,12.57
2022-07-29T18:19:10.152Z,6.03
2022-07-29T18:21:49.908Z,9.45
2022-07-29T18:24:25.887Z,9.13
2022-07-29T18:26:53.041Z,10.45
2022-07-29T18:29:19.629Z,10.32
2022-07-29T18:31:46.957Z,7.38
2022-07-29T18:34:13.963Z,6.78
2022-07-29T18:36:40.677Z,7.43
2022-07-29T18:39:10.605Z,11.70
2022-07-29T18:41:50.332Z,6.18
2022-07-29T18:44:18.988Z,9.10
2022-07-29T18:46:47.397Z,7.20
2022-07-29T18:49:14.841Z,8.63
2022-07-29T18:51:42.160Z,7.05
2022-07-29T18:54:10.032Z,8.80
2022-07-29T18:56:36.871Z,5.68
2022-07-29T18:59:06.254Z,8.80
2022-07-29T19:01:33.524Z,11.23
2022-07-29T19:04:01.108Z,8.05
2022-07-29T19:06:27.913Z,7.35
2022-07-29T19:08:56.918Z,8.18
2022-07-29T19:11:23.633Z,7.63
2022-07-29T19:13:50.696Z,7.13
2022-07-29T19:16:18.377Z,7.53
2022-07-29T19:18:47.366Z,8.27
2022-07-29T19:21:14.418Z,7.50
2022-07-29T19:24:01.825Z,7.53
2022-07-29T19:26:29.403Z,8.90
2022-07-29T19:28:56.300Z,7.40
2022-07-29T19:31:23.166Z,10.10
2022-07-29T19:33:50.196Z,7.85
2022-07-29T19:36:17.038Z,10.00
2022-07-29T19:38:43.677Z,6.70
2022-07-29T19:41:10.720Z,9.07
2022-07-29T19:43:52.093Z,5.45
2022-07-29T19:46:21.087Z,11.68
2022-07-29T19:48:48.231Z,10.77
2022-07-29T19:51:14.905Z,6.33
2022-07-29T19:53:42.108Z,8.40
2022-07-29T19:56:11.840Z,8.23
2022-07-29T19:58:40.465Z,9.35
2022-07-29T20:01:10.035Z,10.88
2022-07-29T20:03:39.942Z,9.97
2022-07-29T20:06:07.509Z,5.38
2022-07-29T20:08:34.754Z,7.68
2022-07-29T20:11:02.108Z,8.95
2022-07-29T20:13:31.244Z,14.07
2022-07-29T20:15:58.477Z,11.37
2022-07-29T20:18:25.519Z,6.80
2022-07-29T20:20:54.420Z,7.70
2022-07-29T20:23:23.382Z,7.93
2022-07-29T20:25:52.649Z,9.15
2022-07-29T20:28:21.943Z,8.47
2022-07-29T20:30:48.840Z,7.40
2022-07-29T20:33:16.144Z,10.18
2022-07-29T20:35:43.689Z,12.23
2022-07-29T20:38:17.916Z,6.85
2022-07-29T20:40:45.626Z,9.80
2022-07-29T20:43:12.544Z,10.80
2022-07-29T20:45:39.785Z,8.23
2022-07-29T20:48:06.949Z,7.00
2022-07-29T20:50:35.076Z,8.38
2022-07-29T20:53:01.929Z,7.73
2022-07-29T20:55:28.779Z,11.15
2022-07-29T20:57:55.359Z,10.57
2022-07-29T21:00:24.438Z,10.88
2022-07-29T21:02:51.949Z,7.07
2022-07-29T21:05:24.774Z,8.90
2022-07-29T21:07:55.366Z,7.88
2022-07-29T21:10:24.601Z,9.90
2022-07-29T21:12:51.141Z,11.18
2022-07-29T21:15:20.585Z,9.77
2022-07-29T21:17:48.114Z,13.13
2022-07-29T21:20:17.918Z,7.88
2022-07-29T21:22:45.216Z,10.10
2022-07-29T21:25:12.563Z,9.52
2022-07-29T21:27:57.923Z,8.90
2022-07-29T21:30:24.768Z,8.37
2022-07-29T21:32:51.599Z,8.88
2022-07-29T21:35:46.491Z,17.98
2022-07-29T21:38:05.532Z,9.32
2022-07-29T21:40:34.497Z,9.18
2022-07-29T21:43:01.178Z,9.00
2022-07-29T21:45:28.167Z,7.97
2022-07-29T21:47:54.788Z,11.43
2022-07-29T21:50:21.533Z,11.15
2022-07-29T21:52:48.582Z,8.52
2022-07-29T21:55:15.348Z,8.63
2022-07-29T21:57:45.262Z,10.57
2022-07-29T22:00:16.152Z,10.23
2022-07-29T22:02:43.651Z,7.57
2022-07-29T22:05:11.182Z,7.95
2022-07-29T22:07:56.541Z,8.87
2022-07-29T22:10:28.698Z,11.60
2022-07-29T22:12:57.922Z,9.48
2022-07-29T22:15:25.029Z,10.20
2022-07-29T22:17:51.721Z,8.30
2022-07-29T22:20:19.592Z,7.87
2022-07-29T22:22:46.713Z,9.00
2022-07-29T22:25:13.492Z,8.93
2022-07-29T22:27:41.444Z,17.13
2022-07-29T22:30:08.602Z,10.98
2022-07-29T22:32:35.409Z,8.77
2022-07-29T22:35:02.253Z,8.23
2022-07-29T22:37:28.983Z,8.05
2022-07-29T22:39:56.586Z,13.00
2022-07-29T22:42:23.927Z,9.77
2022-07-29T22:44:50.635Z,7.97
2022-07-29T22:47:17.404Z,6.78
2022-07-29T22:49:44.990Z,9.95
2022-07-29T22:52:11.766Z,9.75
2022-07-29T22:54:41.318Z,9.90
2022-07-29T22:57:08.550Z,9.13
2022-07-29T22:59:35.261Z,12.50
2022-07-29T23:02:01.849Z,9.13
2022-07-29T23:04:29.261Z,10.45
2022-07-29T23:06:55.828Z,9.88
2022-07-29T23:09:22.616Z,10.80
2022-07-29T23:11:49.620Z,14.00
2022-07-29T23:14:16.376Z,16.17
2022-07-29T23:16:43.103Z,12.68
2022-07-29T23:19:10.245Z,16.10
2022-07-29T23:21:36.984Z,16.00
2022-07-29T23:24:03.853Z,16.02
2022-07-29T23:26:32.006Z,18.15
2022-07-29T23:28:58.901Z,16.02
2022-07-29T23:31:25.721Z,14.23
2022-07-29T23:33:54.091Z,12.43
2022-07-29T23:36:21.005Z,14.57
2022-07-29T23:38:48.290Z,16.65
2022-07-29T23:41:15.719Z,17.00
2022-07-29T23:43:42.414Z,13.90
2022-07-29T23:46:09.039Z,10.13
2022-07-29T23:48:36.976Z,11.68
2022-07-29T23:51:03.824Z,10.52
2022-07-29T23:53:30.561Z,10.43
2022-07-29T23:55:58.069Z,8.35
2022-07-29T23:58:24.609Z,15.13
